sensor_id;sensor_type;location;lat;lon;timestamp;P1;durP1;ratioP1;P2;durP2;ratioP2
13801;SDS011;6972;51.518;6.918;2022-08-11T00:01:35;5.68;;;2.40;;
13801;SDS011;6972;51.518;6.918;2022-08-11T00:04:02;6.82;;;2.58;;
13801;SDS011;6972;51.518;6.918;2022-08-11T00:06:36;8.23;;;2.25;;
13801;SDS011;6972;51.518;6.918;2022-08-11T00:09:04;3.72;;;2.03;;
13801;SDS011;6972;51.518;6.918;2022-08-11T00:11:37;4.00;;;2.33;;
13801;SDS011;6972;51.518;6.918;2022-08-11T00:14:12;4.45;;;2.22;;
13801;SDS011;6972;51.518;6.918;2022-08-11T00:16:41;9.68;;;2.22;;
13801;SDS011;6972;51.518;6.918;2022-08-11T00:19:07;8.02;;;2.10;;
13801;SDS011;6972;51.518;6.918;2022-08-11T00:21:39;5.97;;;2.38;;
13801;SDS011;6972;51.518;6.918;2022-08-11T00:24:07;7.50;;;2.30;;
13801;SDS011;6972;51.518;6.918;2022-08-11T00:26:33;6.60;;;2.28;;
13801;SDS011;6972;51.518;6.918;2022-08-11T00:29:07;4.97;;;2.15;;
13801;SDS011;6972;51.518;6.918;2022-08-11T00:31:34;6.70;;;2.60;;
13801;SDS011;6972;51.518;6.918;2022-08-11T00:34:01;3.30;;;2.00;;
13801;SDS011;6972;51.518;6.918;2022-08-11T00:36:36;5.25;;;2.33;;
13801;SDS011;6972;51.518;6.918;2022-08-11T00:39:09;4.72;;;2.20;;
13801;SDS011;6972;51.518;6.918;2022-08-11T00:47:38;4.68;;;2.05;;
13801;SDS011;6972;51.518;6.918;2022-08-11T01:38:13;5.95;;;2.20;;
13801;SDS011;6972;51.518;6.918;2022-08-11T01:49:34;4.63;;;2.10;;
13801;SDS011;6972;51.518;6.918;2022-08-11T01:52:20;6.45;;;2.30;;
13801;SDS011;6972;51.518;6.918;2022-08-11T01:57:33;6.90;;;2.35;;
13801;SDS011;6972;51.518;6.918;2022-08-11T02:00:07;4.97;;;2.20;;
13801;SDS011;6972;51.518;6.918;2022-08-11T02:02:41;5.75;;;2.00;;
13801;SDS011;6972;51.518;6.918;2022-08-11T02:05:46;4.07;;;2.33;;
13801;SDS011;6972;51.518;6.918;2022-08-11T02:08:44;5.97;;;2.10;;
13801;SDS011;6972;51.518;6.918;2022-08-11T02:11:31;6.72;;;2.40;;
13801;SDS011;6972;51.518;6.918;2022-08-11T02:23:06;4.00;;;2.13;;
13801;SDS011;6972;51.518;6.918;2022-08-11T02:26:02;7.63;;;2.00;;
13801;SDS011;6972;51.518;6.918;2022-08-11T02:31:18;5.57;;;2.38;;
13801;SDS011;6972;51.518;6.918;2022-08-11T02:34:20;4.57;;;2.13;;
13801;SDS011;6972;51.518;6.918;2022-08-11T02:39:45;7.35;;;2.40;;
13801;SDS011;6972;51.518;6.918;2022-08-11T02:50:54;7.63;;;2.45;;
13801;SDS011;6972;51.518;6.918;2022-08-11T02:56:20;6.55;;;2.00;;
13801;SDS011;6972;51.518;6.918;2022-08-11T03:04:19;4.75;;;2.45;;
13801;SDS011;6972;51.518;6.918;2022-08-11T03:07:03;7.93;;;2.50;;
13801;SDS011;6972;51.518;6.918;2022-08-11T03:09:45;4.78;;;2.42;;
13801;SDS011;6972;51.518;6.918;2022-08-11T03:12:19;5.32;;;2.05;;
13801;SDS011;6972;51.518;6.918;2022-08-11T03:15:15;3.25;;;2.10;;
13801;SDS011;6972;51.518;6.918;2022-08-11T03:28:26;7.15;;;2.55;;
13801;SDS011;6972;51.518;6.918;2022-08-11T03:31:05;6.78;;;2.28;;
13801;SDS011;6972;51.518;6.918;2022-08-11T03:33:47;7.00;;;2.70;;
13801;SDS011;6972;51.518;6.918;2022-08-11T03:45:21;5.85;;;2.35;;
13801;SDS011;6972;51.518;6.918;2022-08-11T03:53:48;10.75;;;2.60;;
13801;SDS011;6972;51.518;6.918;2022-08-11T03:57:25;13.07;;;3.00;;
13801;SDS011;6972;51.518;6.918;2022-08-11T04:15:44;5.68;;;2.45;;
13801;SDS011;6972;51.518;6.918;2022-08-11T04:29:55;5.28;;;2.85;;
13801;SDS011;6972;51.518;6.918;2022-08-11T04:59:19;12.65;;;3.50;;
13801;SDS011;6972;51.518;6.918;2022-08-11T05:08:37;15.55;;;3.83;;
13801;SDS011;6972;51.518;6.918;2022-08-11T05:17:08;24.63;;;4.53;;
13801;SDS011;6972;51.518;6.918;2022-08-11T05:19:56;40.42;;;5.82;;
13801;SDS011;6972;51.518;6.918;2022-08-11T05:22:47;29.52;;;5.53;;
13801;SDS011;6972;51.518;6.918;2022-08-11T05:25:34;26.77;;;4.32;;
13801;SDS011;6972;51.518;6.918;2022-08-11T05:31:24;24.40;;;4.65;;
13801;SDS011;6972;51.518;6.918;2022-08-11T05:34:23;34.85;;;4.93;;
13801;SDS011;6972;51.518;6.918;2022-08-11T05:37:12;16.30;;;4.15;;
13801;SDS011;6972;51.518;6.918;2022-08-11T05:39:44;16.30;;;3.85;;
13801;SDS011;6972;51.518;6.918;2022-08-11T05:42:31;13.30;;;3.35;;
13801;SDS011;6972;51.518;6.918;2022-08-11T05:45:19;12.23;;;3.35;;
13801;SDS011;6972;51.518;6.918;2022-08-11T05:48:04;12.50;;;3.58;;
13801;SDS011;6972;51.518;6.918;2022-08-11T05:50:55;28.85;;;6.28;;
13801;SDS011;6972;51.518;6.918;2022-08-11T05:53:46;21.23;;;4.70;;
13801;SDS011;6972;51.518;6.918;2022-08-11T05:56:46;17.67;;;4.50;;
13801;SDS011;6972;51.518;6.918;2022-08-11T05:59:19;21.50;;;4.40;;
13801;SDS011;6972;51.518;6.918;2022-08-11T06:01:47;12.50;;;4.72;;
13801;SDS011;6972;51.518;6.918;2022-08-11T06:04:18;9.07;;;3.97;;
13801;SDS011;6972;51.518;6.918;2022-08-11T06:09:11;12.48;;;3.97;;
13801;SDS011;6972;51.518;6.918;2022-08-11T06:11:38;12.88;;;3.75;;
13801;SDS011;6972;51.518;6.918;2022-08-11T06:14:09;13.57;;;3.80;;
13801;SDS011;6972;51.518;6.918;2022-08-11T06:16:36;15.20;;;4.13;;
13801;SDS011;6972;51.518;6.918;2022-08-11T06:19:04;12.50;;;3.83;;
13801;SDS011;6972;51.518;6.918;2022-08-11T06:21:32;14.57;;;3.83;;
13801;SDS011;6972;51.518;6.918;2022-08-11T06:24:00;14.50;;;4.10;;
13801;SDS011;6972;51.518;6.918;2022-08-11T06:26:29;12.55;;;3.80;;
13801;SDS011;6972;51.518;6.918;2022-08-11T06:28:57;9.30;;;3.83;;
13801;SDS011;6972;51.518;6.918;2022-08-11T06:31:25;11.85;;;3.40;;
13801;SDS011;6972;51.518;6.918;2022-08-11T06:33:54;13.32;;;3.90;;
13801;SDS011;6972;51.518;6.918;2022-08-11T06:36:38;14.20;;;3.55;;
13801;SDS011;6972;51.518;6.918;2022-08-11T06:39:56;18.02;;;4.00;;
13801;SDS011;6972;51.518;6.918;2022-08-11T06:42:33;16.98;;;3.83;;
13801;SDS011;6972;51.518;6.918;2022-08-11T06:48:20;13.57;;;3.65;;
13801;SDS011;6972;51.518;6.918;2022-08-11T06:50:48;20.17;;;3.72;;
13801;SDS011;6972;51.518;6.918;2022-08-11T06:53:46;16.38;;;4.07;;
13801;SDS011;6972;51.518;6.918;2022-08-11T06:56:24;20.58;;;4.30;;
13801;SDS011;6972;51.518;6.918;2022-08-11T06:59:11;13.20;;;3.65;;
13801;SDS011;6972;51.518;6.918;2022-08-11T07:02:08;15.02;;;3.72;;
13801;SDS011;6972;51.518;6.918;2022-08-11T07:04:46;21.15;;;3.83;;
13801;SDS011;6972;51.518;6.918;2022-08-11T07:14:09;10.52;;;3.85;;
13801;SDS011;6972;51.518;6.918;2022-08-11T07:16:54;11.07;;;4.00;;
13801;SDS011;6972;51.518;6.918;2022-08-11T07:19:26;25.85;;;3.88;;
13801;SDS011;6972;51.518;6.918;2022-08-11T07:22:12;16.55;;;3.80;;
13801;SDS011;6972;51.518;6.918;2022-08-11T07:25:12;7.22;;;3.28;;
13801;SDS011;6972;51.518;6.918;2022-08-11T07:27:59;12.63;;;3.38;;
13801;SDS011;6972;51.518;6.918;2022-08-11T07:30:53;10.68;;;3.45;;
13801;SDS011;6972;51.518;6.918;2022-08-11T07:33:24;9.18;;;3.47;;
13801;SDS011;6972;51.518;6.918;2022-08-11T07:35:55;13.13;;;3.67;;
13801;SDS011;6972;51.518;6.918;2022-08-11T07:38:25;14.50;;;4.03;;
13801;SDS011;6972;51.518;6.918;2022-08-11T07:41:11;10.70;;;3.50;;
13801;SDS011;6972;51.518;6.918;2022-08-11T07:43:39;16.73;;;3.50;;
13801;SDS011;6972;51.518;6.918;2022-08-11T07:46:06;6.85;;;3.13;;
13801;SDS011;6972;51.518;6.918;2022-08-11T07:48:52;12.98;;;3.60;;
13801;SDS011;6972;51.518;6.918;2022-08-11T07:51:38;12.70;;;3.60;;
13801;SDS011;6972;51.518;6.918;2022-08-11T07:54:22;14.98;;;3.60;;
13801;SDS011;6972;51.518;6.918;2022-08-11T07:56:49;14.90;;;4.07;;
13801;SDS011;6972;51.518;6.918;2022-08-11T07:59:16;19.92;;;3.55;;
13801;SDS011;6972;51.518;6.918;2022-08-11T08:02:01;14.55;;;3.58;;
13801;SDS011;6972;51.518;6.918;2022-08-11T08:04:47;8.27;;;3.17;;
13801;SDS011;6972;51.518;6.918;2022-08-11T08:07:32;10.60;;;3.90;;
13801;SDS011;6972;51.518;6.918;2022-08-11T08:10:17;8.82;;;3.67;;
13801;SDS011;6972;51.518;6.918;2022-08-11T08:13:04;10.85;;;3.60;;
13801;SDS011;6972;51.518;6.918;2022-08-11T08:15:49;12.82;;;3.97;;
13801;SDS011;6972;51.518;6.918;2022-08-11T08:18:35;9.98;;;3.75;;
13801;SDS011;6972;51.518;6.918;2022-08-11T08:21:03;11.60;;;3.35;;
13801;SDS011;6972;51.518;6.918;2022-08-11T08:23:37;9.43;;;3.33;;
13801;SDS011;6972;51.518;6.918;2022-08-11T08:26:07;7.50;;;3.40;;
13801;SDS011;6972;51.518;6.918;2022-08-11T08:28:55;11.20;;;3.40;;
13801;SDS011;6972;51.518;6.918;2022-08-11T08:31:45;14.63;;;3.53;;
13801;SDS011;6972;51.518;6.918;2022-08-11T08:34:12;13.07;;;3.63;;
13801;SDS011;6972;51.518;6.918;2022-08-11T08:36:46;8.85;;;3.83;;
13801;SDS011;6972;51.518;6.918;2022-08-11T08:39:14;17.17;;;3.60;;
13801;SDS011;6972;51.518;6.918;2022-08-11T08:41:44;8.30;;;3.22;;
13801;SDS011;6972;51.518;6.918;2022-08-11T08:44:14;13.10;;;3.25;;
13801;SDS011;6972;51.518;6.918;2022-08-11T08:46:43;7.95;;;3.00;;
13801;SDS011;6972;51.518;6.918;2022-08-11T08:49:18;13.27;;;3.58;;
13801;SDS011;6972;51.518;6.918;2022-08-11T08:51:51;14.30;;;3.22;;
13801;SDS011;6972;51.518;6.918;2022-08-11T08:54:21;11.70;;;3.50;;
13801;SDS011;6972;51.518;6.918;2022-08-11T08:56:52;10.88;;;3.20;;
13801;SDS011;6972;51.518;6.918;2022-08-11T08:59:20;12.35;;;2.90;;
13801;SDS011;6972;51.518;6.918;2022-08-11T09:01:56;13.77;;;3.22;;
13801;SDS011;6972;51.518;6.918;2022-08-11T09:04:24;8.32;;;3.03;;
13801;SDS011;6972;51.518;6.918;2022-08-11T09:06:50;7.95;;;2.63;;
13801;SDS011;6972;51.518;6.918;2022-08-11T09:09:17;4.38;;;2.78;;
13801;SDS011;6972;51.518;6.918;2022-08-11T09:11:45;15.73;;;3.53;;
13801;SDS011;6972;51.518;6.918;2022-08-11T09:14:18;8.00;;;2.83;;
13801;SDS011;6972;51.518;6.918;2022-08-11T09:16:44;15.68;;;3.38;;
13801;SDS011;6972;51.518;6.918;2022-08-11T09:19:12;15.45;;;3.20;;
13801;SDS011;6972;51.518;6.918;2022-08-11T09:21:45;8.45;;;2.85;;
13801;SDS011;6972;51.518;6.918;2022-08-11T09:24:35;9.55;;;3.17;;
13801;SDS011;6972;51.518;6.918;2022-08-11T09:27:22;8.38;;;3.00;;
13801;SDS011;6972;51.518;6.918;2022-08-11T09:29:49;10.80;;;2.90;;
13801;SDS011;6972;51.518;6.918;2022-08-11T09:32:19;10.18;;;3.40;;
13801;SDS011;6972;51.518;6.918;2022-08-11T09:34:46;7.28;;;2.80;;
13801;SDS011;6972;51.518;6.918;2022-08-11T09:37:14;13.95;;;3.22;;
13801;SDS011;6972;51.518;6.918;2022-08-11T09:39:58;9.00;;;2.90;;
13801;SDS011;6972;51.518;6.918;2022-08-11T09:42:43;9.70;;;2.80;;
13801;SDS011;6972;51.518;6.918;2022-08-11T09:45:28;9.23;;;2.65;;
13801;SDS011;6972;51.518;6.918;2022-08-11T09:47:55;6.22;;;2.67;;
13801;SDS011;6972;51.518;6.918;2022-08-11T09:50:23;5.70;;;3.00;;
13801;SDS011;6972;51.518;6.918;2022-08-11T09:52:49;7.25;;;2.65;;
13801;SDS011;6972;51.518;6.918;2022-08-11T09:55:15;6.40;;;2.97;;
13801;SDS011;6972;51.518;6.918;2022-08-11T09:57:46;9.57;;;2.83;;
13801;SDS011;6972;51.518;6.918;2022-08-11T10:00:31;5.63;;;2.63;;
13801;SDS011;6972;51.518;6.918;2022-08-11T10:03:01;6.47;;;2.75;;
13801;SDS011;6972;51.518;6.918;2022-08-11T10:05:31;8.65;;;2.72;;
13801;SDS011;6972;51.518;6.918;2022-08-11T10:08:16;5.82;;;3.00;;
13801;SDS011;6972;51.518;6.918;2022-08-11T10:10:43;7.57;;;2.60;;
13801;SDS011;6972;51.518;6.918;2022-08-11T10:13:17;5.07;;;2.38;;
13801;SDS011;6972;51.518;6.918;2022-08-11T10:15:49;5.63;;;2.78;;
13801;SDS011;6972;51.518;6.918;2022-08-11T10:18:34;6.47;;;2.15;;
13801;SDS011;6972;51.518;6.918;2022-08-11T10:21:10;4.53;;;2.22;;
13801;SDS011;6972;51.518;6.918;2022-08-11T10:23:39;6.05;;;2.75;;
13801;SDS011;6972;51.518;6.918;2022-08-11T10:26:26;14.55;;;2.75;;
13801;SDS011;6972;51.518;6.918;2022-08-11T10:29:13;5.32;;;2.60;;
13801;SDS011;6972;51.518;6.918;2022-08-11T10:31:57;5.05;;;2.30;;
13801;SDS011;6972;51.518;6.918;2022-08-11T10:34:42;6.78;;;2.20;;
13801;SDS011;6972;51.518;6.918;2022-08-11T10:37:11;8.13;;;2.03;;
13801;SDS011;6972;51.518;6.918;2022-08-11T10:39:38;9.07;;;2.60;;
13801;SDS011;6972;51.518;6.918;2022-08-11T10:42:04;7.57;;;2.80;;
13801;SDS011;6972;51.518;6.918;2022-08-11T10:44:52;6.43;;;2.58;;
13801;SDS011;6972;51.518;6.918;2022-08-11T10:47:19;5.75;;;2.22;;
13801;SDS011;6972;51.518;6.918;2022-08-11T10:50:04;7.75;;;2.47;;
13801;SDS011;6972;51.518;6.918;2022-08-11T10:52:51;6.60;;;2.70;;
13801;SDS011;6972;51.518;6.918;2022-08-11T10:55:37;7.15;;;2.80;;
13801;SDS011;6972;51.518;6.918;2022-08-11T10:58:25;4.95;;;2.78;;
13801;SDS011;6972;51.518;6.918;2022-08-11T11:01:10;5.50;;;2.80;;
13801;SDS011;6972;51.518;6.918;2022-08-11T11:03:36;12.18;;;2.85;;
13801;SDS011;6972;51.518;6.918;2022-08-11T11:06:20;7.00;;;2.60;;
13801;SDS011;6972;51.518;6.918;2022-08-11T11:09:21;5.20;;;2.35;;
13801;SDS011;6972;51.518;6.918;2022-08-11T11:11:55;11.23;;;3.00;;
13801;SDS011;6972;51.518;6.918;2022-08-11T11:14:42;4.75;;;2.72;;
13801;SDS011;6972;51.518;6.918;2022-08-11T11:17:28;10.18;;;2.35;;
13801;SDS011;6972;51.518;6.918;2022-08-11T11:20:20;5.38;;;2.40;;
13801;SDS011;6972;51.518;6.918;2022-08-11T11:22:52;5.30;;;2.30;;
13801;SDS011;6972;51.518;6.918;2022-08-11T11:25:43;9.52;;;2.55;;
13801;SDS011;6972;51.518;6.918;2022-08-11T11:37:02;8.63;;;2.50;;
13801;SDS011;6972;51.518;6.918;2022-08-11T11:39:29;7.20;;;2.40;;
13801;SDS011;6972;51.518;6.918;2022-08-11T11:41:59;8.02;;;2.70;;
13801;SDS011;6972;51.518;6.918;2022-08-11T11:44:28;9.30;;;2.38;;
13801;SDS011;6972;51.518;6.918;2022-08-11T11:46:54;5.32;;;2.70;;
13801;SDS011;6972;51.518;6.918;2022-08-11T11:49:22;6.38;;;2.50;;
13801;SDS011;6972;51.518;6.918;2022-08-11T11:51:50;7.22;;;2.25;;
13801;SDS011;6972;51.518;6.918;2022-08-11T11:54:22;6.63;;;2.65;;
13801;SDS011;6972;51.518;6.918;2022-08-11T11:56:51;4.70;;;2.60;;
13801;SDS011;6972;51.518;6.918;2022-08-11T11:59:22;5.05;;;2.17;;
13801;SDS011;6972;51.518;6.918;2022-08-11T12:02:08;3.95;;;2.60;;
13801;SDS011;6972;51.518;6.918;2022-08-11T12:04:37;7.88;;;2.53;;
13801;SDS011;6972;51.518;6.918;2022-08-11T12:07:07;5.85;;;2.53;;
13801;SDS011;6972;51.518;6.918;2022-08-11T12:09:52;6.05;;;2.45;;
13801;SDS011;6972;51.518;6.918;2022-08-11T12:12:19;7.82;;;2.58;;
13801;SDS011;6972;51.518;6.918;2022-08-11T12:15:05;6.70;;;2.35;;
13801;SDS011;6972;51.518;6.918;2022-08-11T12:17:33;6.65;;;2.25;;
13801;SDS011;6972;51.518;6.918;2022-08-11T12:20:00;4.10;;;2.28;;
13801;SDS011;6972;51.518;6.918;2022-08-11T12:22:28;5.53;;;2.42;;
13801;SDS011;6972;51.518;6.918;2022-08-11T12:25:13;5.00;;;2.78;;
13801;SDS011;6972;51.518;6.918;2022-08-11T12:27:59;5.13;;;2.72;;
13801;SDS011;6972;51.518;6.918;2022-08-11T12:30:25;12.05;;;2.80;;
13801;SDS011;6972;51.518;6.918;2022-08-11T12:32:51;7.07;;;2.50;;
13801;SDS011;6972;51.518;6.918;2022-08-11T12:35:17;7.63;;;2.95;;
13801;SDS011;6972;51.518;6.918;2022-08-11T12:37:44;5.97;;;2.72;;
13801;SDS011;6972;51.518;6.918;2022-08-11T12:40:14;5.32;;;2.78;;
13801;SDS011;6972;51.518;6.918;2022-08-11T12:43:02;5.18;;;2.70;;
13801;SDS011;6972;51.518;6.918;2022-08-11T12:45:53;9.05;;;2.80;;
13801;SDS011;6972;51.518;6.918;2022-08-11T12:48:22;6.93;;;3.00;;
13801;SDS011;6972;51.518;6.918;2022-08-11T12:51:11;4.18;;;2.55;;
13801;SDS011;6972;51.518;6.918;2022-08-11T12:54:11;11.75;;;3.10;;
13801;SDS011;6972;51.518;6.918;2022-08-11T12:56:44;10.70;;;2.95;;
13801;SDS011;6972;51.518;6.918;2022-08-11T12:59:31;5.88;;;3.03;;
13801;SDS011;6972;51.518;6.918;2022-08-11T13:02:18;4.65;;;2.67;;
13801;SDS011;6972;51.518;6.918;2022-08-11T13:05:06;5.45;;;2.50;;
13801;SDS011;6972;51.518;6.918;2022-08-11T13:07:33;7.28;;;2.65;;
13801;SDS011;6972;51.518;6.918;2022-08-11T13:10:04;5.05;;;2.85;;
13801;SDS011;6972;51.518;6.918;2022-08-11T13:12:31;8.68;;;2.67;;
13801;SDS011;6972;51.518;6.918;2022-08-11T13:15:19;5.70;;;2.50;;
13801;SDS011;6972;51.518;6.918;2022-08-11T13:17:48;3.88;;;2.47;;
13801;SDS011;6972;51.518;6.918;2022-08-11T13:20:16;8.30;;;2.47;;
13801;SDS011;6972;51.518;6.918;2022-08-11T13:22:44;11.13;;;2.80;;
13801;SDS011;6972;51.518;6.918;2022-08-11T13:25:17;7.43;;;2.72;;
13801;SDS011;6972;51.518;6.918;2022-08-11T13:27:45;3.88;;;2.15;;
13801;SDS011;6972;51.518;6.918;2022-08-11T13:30:15;6.10;;;2.72;;
13801;SDS011;6972;51.518;6.918;2022-08-11T13:33:01;5.63;;;2.28;;
13801;SDS011;6972;51.518;6.918;2022-08-11T13:35:31;3.03;;;2.20;;
13801;SDS011;6972;51.518;6.918;2022-08-11T13:37:57;4.10;;;2.40;;
13801;SDS011;6972;51.518;6.918;2022-08-11T13:40:26;7.35;;;2.47;;
13801;SDS011;6972;51.518;6.918;2022-08-11T13:42:53;5.57;;;2.55;;
13801;SDS011;6972;51.518;6.918;2022-08-11T13:45:21;8.38;;;2.88;;
13801;SDS011;6972;51.518;6.918;2022-08-11T13:47:47;8.10;;;2.60;;
13801;SDS011;6972;51.518;6.918;2022-08-11T13:50:15;8.57;;;2.90;;
13801;SDS011;6972;51.518;6.918;2022-08-11T13:52:42;5.68;;;2.72;;
13801;SDS011;6972;51.518;6.918;2022-08-11T13:55:10;3.35;;;2.42;;
13801;SDS011;6972;51.518;6.918;2022-08-11T13:57:50;7.20;;;2.75;;
13801;SDS011;6972;51.518;6.918;2022-08-11T14:00:18;6.20;;;2.30;;
13801;SDS011;6972;51.518;6.918;2022-08-11T14:02:44;5.18;;;2.80;;
13801;SDS011;6972;51.518;6.918;2022-08-11T14:05:14;8.20;;;2.72;;
13801;SDS011;6972;51.518;6.918;2022-08-11T14:07:52;6.13;;;2.13;;
13801;SDS011;6972;51.518;6.918;2022-08-11T14:10:23;6.28;;;2.80;;
13801;SDS011;6972;51.518;6.918;2022-08-11T14:12:54;6.70;;;2.40;;
13801;SDS011;6972;51.518;6.918;2022-08-11T14:15:49;10.32;;;2.78;;
13801;SDS011;6972;51.518;6.918;2022-08-11T14:20:46;8.77;;;2.80;;
13801;SDS011;6972;51.518;6.918;2022-08-11T14:23:36;5.50;;;2.50;;
13801;SDS011;6972;51.518;6.918;2022-08-11T14:26:04;6.45;;;2.22;;
13801;SDS011;6972;51.518;6.918;2022-08-11T14:28:50;6.70;;;2.45;;
13801;SDS011;6972;51.518;6.918;2022-08-11T14:31:19;4.43;;;2.45;;
13801;SDS011;6972;51.518;6.918;2022-08-11T14:33:47;4.07;;;2.75;;
13801;SDS011;6972;51.518;6.918;2022-08-11T14:36:14;12.40;;;2.55;;
13801;SDS011;6972;51.518;6.918;2022-08-11T14:38:41;6.25;;;2.60;;
13801;SDS011;6972;51.518;6.918;2022-08-11T14:41:07;6.72;;;2.72;;
13801;SDS011;6972;51.518;6.918;2022-08-11T14:43:52;6.68;;;2.45;;
13801;SDS011;6972;51.518;6.918;2022-08-11T14:46:39;9.75;;;2.35;;
13801;SDS011;6972;51.518;6.918;2022-08-11T14:49:27;5.47;;;2.15;;
13801;SDS011;6972;51.518;6.918;2022-08-11T14:51:53;3.92;;;2.05;;
13801;SDS011;6972;51.518;6.918;2022-08-11T14:54:23;4.63;;;2.40;;
13801;SDS011;6972;51.518;6.918;2022-08-11T14:57:10;4.07;;;2.20;;
13801;SDS011;6972;51.518;6.918;2022-08-11T14:59:37;9.73;;;2.20;;
13801;SDS011;6972;51.518;6.918;2022-08-11T15:02:03;10.13;;;2.70;;
13801;SDS011;6972;51.518;6.918;2022-08-11T15:04:51;6.53;;;2.67;;
13801;SDS011;6972;51.518;6.918;2022-08-11T15:07:20;6.57;;;2.63;;
13801;SDS011;6972;51.518;6.918;2022-08-11T15:09:53;7.57;;;2.85;;
13801;SDS011;6972;51.518;6.918;2022-08-11T15:12:19;4.40;;;2.40;;
13801;SDS011;6972;51.518;6.918;2022-08-11T15:14:46;7.82;;;2.45;;
13801;SDS011;6972;51.518;6.918;2022-08-11T15:17:33;6.22;;;2.53;;
13801;SDS011;6972;51.518;6.918;2022-08-11T15:20:05;5.20;;;2.33;;
13801;SDS011;6972;51.518;6.918;2022-08-11T15:22:52;9.95;;;2.47;;
13801;SDS011;6972;51.518;6.918;2022-08-11T15:25:37;4.18;;;2.20;;
13801;SDS011;6972;51.518;6.918;2022-08-11T15:28:07;8.57;;;2.65;;
13801;SDS011;6972;51.518;6.918;2022-08-11T15:30:54;11.35;;;2.60;;
13801;SDS011;6972;51.518;6.918;2022-08-11T15:33:41;6.53;;;2.08;;
13801;SDS011;6972;51.518;6.918;2022-08-11T15:36:29;8.77;;;2.40;;
13801;SDS011;6972;51.518;6.918;2022-08-11T15:39:20;4.45;;;2.40;;
13801;SDS011;6972;51.518;6.918;2022-08-11T15:41:59;4.82;;;2.53;;
13801;SDS011;6972;51.518;6.918;2022-08-11T15:44:49;2.90;;;2.22;;
13801;SDS011;6972;51.518;6.918;2022-08-11T15:47:56;7.30;;;2.42;;
13801;SDS011;6972;51.518;6.918;2022-08-11T15:50:27;8.60;;;2.38;;
13801;SDS011;6972;51.518;6.918;2022-08-11T15:52:58;5.32;;;2.30;;
13801;SDS011;6972;51.518;6.918;2022-08-11T15:55:27;4.28;;;2.15;;
13801;SDS011;6972;51.518;6.918;2022-08-11T15:57:55;12.20;;;2.63;;
13801;SDS011;6972;51.518;6.918;2022-08-11T16:00:44;7.03;;;2.13;;
13801;SDS011;6972;51.518;6.918;2022-08-11T16:03:31;6.22;;;2.15;;
13801;SDS011;6972;51.518;6.918;2022-08-11T16:06:24;5.00;;;2.20;;
13801;SDS011;6972;51.518;6.918;2022-08-11T16:08:51;5.28;;;2.28;;
13801;SDS011;6972;51.518;6.918;2022-08-11T16:11:20;10.55;;;2.40;;
13801;SDS011;6972;51.518;6.918;2022-08-11T16:13:46;4.88;;;2.15;;
13801;SDS011;6972;51.518;6.918;2022-08-11T16:16:31;5.55;;;2.40;;
13801;SDS011;6972;51.518;6.918;2022-08-11T16:18:57;8.48;;;2.10;;
13801;SDS011;6972;51.518;6.918;2022-08-11T16:21:34;4.05;;;2.03;;
13801;SDS011;6972;51.518;6.918;2022-08-11T16:24:05;7.03;;;2.20;;
13801;SDS011;6972;51.518;6.918;2022-08-11T16:26:34;6.35;;;1.92;;
13801;SDS011;6972;51.518;6.918;2022-08-11T16:29:03;9.27;;;2.30;;
13801;SDS011;6972;51.518;6.918;2022-08-11T16:31:31;4.85;;;2.40;;
13801;SDS011;6972;51.518;6.918;2022-08-11T16:33:59;4.13;;;2.20;;
13801;SDS011;6972;51.518;6.918;2022-08-11T16:36:26;4.30;;;2.10;;
13801;SDS011;6972;51.518;6.918;2022-08-11T16:39:13;8.25;;;2.25;;
13801;SDS011;6972;51.518;6.918;2022-08-11T16:41:42;6.28;;;2.28;;
13801;SDS011;6972;51.518;6.918;2022-08-11T16:44:27;4.25;;;2.20;;
13801;SDS011;6972;51.518;6.918;2022-08-11T16:47:14;4.18;;;1.85;;
13801;SDS011;6972;51.518;6.918;2022-08-11T16:49:51;5.82;;;2.25;;
13801;SDS011;6972;51.518;6.918;2022-08-11T16:52:19;5.60;;;2.20;;
13801;SDS011;6972;51.518;6.918;2022-08-11T16:54:46;3.47;;;2.30;;
13801;SDS011;6972;51.518;6.918;2022-08-11T16:57:17;6.10;;;2.42;;
13801;SDS011;6972;51.518;6.918;2022-08-11T17:00:09;4.85;;;2.08;;
13801;SDS011;6972;51.518;6.918;2022-08-11T17:02:42;11.27;;;2.70;;
13801;SDS011;6972;51.518;6.918;2022-08-11T17:05:31;8.23;;;2.30;;
13801;SDS011;6972;51.518;6.918;2022-08-11T17:08:18;5.85;;;2.10;;
13801;SDS011;6972;51.518;6.918;2022-08-11T17:11:05;5.32;;;2.30;;
13801;SDS011;6972;51.518;6.918;2022-08-11T17:13:59;7.97;;;2.47;;
13801;SDS011;6972;51.518;6.918;2022-08-11T17:16:31;6.70;;;2.40;;
13801;SDS011;6972;51.518;6.918;2022-08-11T17:19:07;4.70;;;2.60;;
13801;SDS011;6972;51.518;6.918;2022-08-11T17:21:44;4.35;;;2.40;;
13801;SDS011;6972;51.518;6.918;2022-08-11T17:24:33;10.95;;;2.50;;
13801;SDS011;6972;51.518;6.918;2022-08-11T17:27:02;6.53;;;2.20;;
13801;SDS011;6972;51.518;6.918;2022-08-11T17:29:39;7.40;;;2.53;;
13801;SDS011;6972;51.518;6.918;2022-08-11T17:32:08;5.95;;;2.38;;
13801;SDS011;6972;51.518;6.918;2022-08-11T17:34:58;4.30;;;2.47;;
13801;SDS011;6972;51.518;6.918;2022-08-11T17:37:47;6.32;;;2.20;;
13801;SDS011;6972;51.518;6.918;2022-08-11T17:40:16;3.78;;;2.22;;
13801;SDS011;6972;51.518;6.918;2022-08-11T17:42:48;10.50;;;2.35;;
13801;SDS011;6972;51.518;6.918;2022-08-11T17:45:36;7.20;;;2.40;;
13801;SDS011;6972;51.518;6.918;2022-08-11T17:48:23;5.80;;;2.25;;
13801;SDS011;6972;51.518;6.918;2022-08-11T17:50:53;4.18;;;2.45;;
13801;SDS011;6972;51.518;6.918;2022-08-11T17:53:29;10.27;;;2.92;;
13801;SDS011;6972;51.518;6.918;2022-08-11T17:56:16;10.52;;;2.30;;
13801;SDS011;6972;51.518;6.918;2022-08-11T17:59:02;5.28;;;2.33;;
13801;SDS011;6972;51.518;6.918;2022-08-11T18:01:50;4.55;;;2.55;;
13801;SDS011;6972;51.518;6.918;2022-08-11T18:04:18;4.50;;;2.67;;
13801;SDS011;6972;51.518;6.918;2022-08-11T18:06:46;4.30;;;2.10;;
13801;SDS011;6972;51.518;6.918;2022-08-11T18:09:13;8.30;;;2.40;;
13801;SDS011;6972;51.518;6.918;2022-08-11T18:12:00;5.30;;;2.25;;
13801;SDS011;6972;51.518;6.918;2022-08-11T18:14:49;5.75;;;2.65;;
13801;SDS011;6972;51.518;6.918;2022-08-11T18:17:35;8.75;;;3.10;;
13801;SDS011;6972;51.518;6.918;2022-08-11T18:20:20;5.35;;;2.47;;
13801;SDS011;6972;51.518;6.918;2022-08-11T18:23:06;6.85;;;2.67;;
13801;SDS011;6972;51.518;6.918;2022-08-11T18:25:54;4.28;;;2.60;;
13801;SDS011;6972;51.518;6.918;2022-08-11T18:28:45;7.05;;;2.67;;
13801;SDS011;6972;51.518;6.918;2022-08-11T18:31:34;6.75;;;2.38;;
13801;SDS011;6972;51.518;6.918;2022-08-11T18:34:27;7.28;;;2.95;;
13801;SDS011;6972;51.518;6.918;2022-08-11T18:37:15;5.70;;;2.67;;
13801;SDS011;6972;51.518;6.918;2022-08-11T18:40:04;7.10;;;2.65;;
13801;SDS011;6972;51.518;6.918;2022-08-11T18:42:52;9.40;;;2.78;;
13801;SDS011;6972;51.518;6.918;2022-08-11T18:45:40;6.75;;;2.45;;
13801;SDS011;6972;51.518;6.918;2022-08-11T18:48:26;6.43;;;2.67;;
13801;SDS011;6972;51.518;6.918;2022-08-11T18:51:13;10.73;;;3.08;;
13801;SDS011;6972;51.518;6.918;2022-08-11T18:53:59;6.38;;;2.55;;
13801;SDS011;6972;51.518;6.918;2022-08-11T18:56:49;7.30;;;2.90;;
13801;SDS011;6972;51.518;6.918;2022-08-11T18:59:34;8.25;;;2.92;;
13801;SDS011;6972;51.518;6.918;2022-08-11T19:02:21;5.97;;;2.80;;
13801;SDS011;6972;51.518;6.918;2022-08-11T19:05:07;3.95;;;2.70;;
13801;SDS011;6972;51.518;6.918;2022-08-11T19:07:54;5.05;;;2.60;;
13801;SDS011;6972;51.518;6.918;2022-08-11T19:10:41;4.63;;;2.80;;
13801;SDS011;6972;51.518;6.918;2022-08-11T19:13:27;6.57;;;3.20;;
13801;SDS011;6972;51.518;6.918;2022-08-11T19:16:14;11.35;;;3.28;;
13801;SDS011;6972;51.518;6.918;2022-08-11T19:18:59;6.30;;;2.92;;
13801;SDS011;6972;51.518;6.918;2022-08-11T19:21:45;9.07;;;3.05;;
13801;SDS011;6972;51.518;6.918;2022-08-11T19:24:31;9.45;;;3.03;;
13801;SDS011;6972;51.518;6.918;2022-08-11T19:27:17;7.28;;;2.95;;
13801;SDS011;6972;51.518;6.918;2022-08-11T19:30:02;6.40;;;2.97;;
13801;SDS011;6972;51.518;6.918;2022-08-11T19:32:48;7.20;;;3.80;;
13801;SDS011;6972;51.518;6.918;2022-08-11T19:35:34;5.00;;;2.72;;
13801;SDS011;6972;51.518;6.918;2022-08-11T19:38:19;9.38;;;3.40;;